CYJT - Stephenville Airport

Pirep is a free, collaborative database of all public and private airports located within the United States. All pilots are welcome to contribute, edit, and improve any airport they have local knowledge about, no registration required.
Are you familiar with this airport? Help out other pilots by adding your local knowledge.
Uploaded photos will be licensed under a CC BY-SA 4.0 license. Please only upload photos you have the rights to use.
Tags
Public
Undocu­mented
METAR / TAF
Edit Tags
Food
Camping
Lodging
Car Rental
Bicycles
Swimming
Golfing
Fishing
Hot Springs
Museum
Flying Clubs
Airpark
Upcoming Events
No upcoming events. Is anything happening here soon?
*
*
*

Where exactly on/near the airport is this event taking place?

Is there a webpage with more information for this event?

Who should be contacted for more information?

What is this event all about?

Repeat every
Description
Transient Parking
Fuel Location
Landing & Tie-down Fees
Crew Car Availability
Flying Clubs
WiFi Access
Airport Statistics
Location: Stephenville, Newfoundland and Labrador
Elevation: 84ft
Runway 09/27: 10,000ft
Runway 02/20: 3,900ft
Warning: This airport was imported from a non-authoritative source. It's public/private status may not be accurate.
Access: Open to the public
Current Weather — VFR
  • Weather data is strictly informational and not for flight planning purposes.
  • METAR
    2024-04-22 08:30:00 NDT
    Ceiling Wind Temperature Dewpoint Weather Visbility
    7,000ft 140° @ 6kt 42°F 35°F N/A 15SM
    Clouds: Scattered @ 2,200ft, Broken @ 7,000ft
    Raw: CYJT 221100Z 14006KT 15SM SCT022 BKN070 06/02 A2965 RMK SC3AC3 SLP045
  • TAF
    2024-04-22 03:30:00 NDT – 2024-04-22 05:30:00 NDT
    Ceiling Wind Weather Visbility
    11,000ft 60° @ 7kt N/A 6SM
    Clouds: Broken @ 11,000ft
    Raw: TAF CYJT 220540Z 2206/2306 06007KT P6SM BKN110 FM220800 12010G20KT P6SM BKN070 FM221200 18012G22KT P6SM -RA OVC030 TEMPO 2212/2215 5SM -RA BR OVC020 FM221500 22015G25KT P6SM BKN015 FM221800 24015G25KT 4SM -DZ BR OVC007 FM222000 27012G22KT P6SM BKN020 FM230000 27015G25KT 4SM -SHSN OVC020 RMK NXT FCST BY 221200Z
  • TAF
    2024-04-22 05:30:00 NDT – 2024-04-22 09:30:00 NDT
    Ceiling Wind Weather Visbility
    7,000ft 120° @ 10kt, gusts 20kt N/A 6SM
    Clouds: Broken @ 7,000ft
    Raw: TAF CYJT 220540Z 2206/2306 06007KT P6SM BKN110 FM220800 12010G20KT P6SM BKN070 FM221200 18012G22KT P6SM -RA OVC030 TEMPO 2212/2215 5SM -RA BR OVC020 FM221500 22015G25KT P6SM BKN015 FM221800 24015G25KT 4SM -DZ BR OVC007 FM222000 27012G22KT P6SM BKN020 FM230000 27015G25KT 4SM -SHSN OVC020 RMK NXT FCST BY 221200Z
  • TAF
    2024-04-22 09:30:00 NDT – 2024-04-22 12:30:00 NDT
    Ceiling Wind Weather Visbility
    3,000ft 180° @ 12kt, gusts 22kt Light rain 6SM
    Clouds: Overcast @ 3,000ft
    Raw: TAF CYJT 220540Z 2206/2306 06007KT P6SM BKN110 FM220800 12010G20KT P6SM BKN070 FM221200 18012G22KT P6SM -RA OVC030 TEMPO 2212/2215 5SM -RA BR OVC020 FM221500 22015G25KT P6SM BKN015 FM221800 24015G25KT 4SM -DZ BR OVC007 FM222000 27012G22KT P6SM BKN020 FM230000 27015G25KT 4SM -SHSN OVC020 RMK NXT FCST BY 221200Z
  • TAF
    2024-04-22 09:30:00 NDT – 2024-04-22 12:30:00 NDT
    Ceiling Wind Weather Visbility
    2,000ft ° @ kt Light rain, mist 5SM
    Clouds: Overcast @ 2,000ft
    Raw: TAF CYJT 220540Z 2206/2306 06007KT P6SM BKN110 FM220800 12010G20KT P6SM BKN070 FM221200 18012G22KT P6SM -RA OVC030 TEMPO 2212/2215 5SM -RA BR OVC020 FM221500 22015G25KT P6SM BKN015 FM221800 24015G25KT 4SM -DZ BR OVC007 FM222000 27012G22KT P6SM BKN020 FM230000 27015G25KT 4SM -SHSN OVC020 RMK NXT FCST BY 221200Z
  • TAF
    2024-04-22 12:30:00 NDT – 2024-04-22 15:30:00 NDT
    Ceiling Wind Weather Visbility
    1,500ft 220° @ 15kt, gusts 25kt N/A 6SM
    Clouds: Broken @ 1,500ft
    Raw: TAF CYJT 220540Z 2206/2306 06007KT P6SM BKN110 FM220800 12010G20KT P6SM BKN070 FM221200 18012G22KT P6SM -RA OVC030 TEMPO 2212/2215 5SM -RA BR OVC020 FM221500 22015G25KT P6SM BKN015 FM221800 24015G25KT 4SM -DZ BR OVC007 FM222000 27012G22KT P6SM BKN020 FM230000 27015G25KT 4SM -SHSN OVC020 RMK NXT FCST BY 221200Z
  • TAF
    2024-04-22 15:30:00 NDT – 2024-04-22 17:30:00 NDT
    Ceiling Wind Weather Visbility
    700ft 240° @ 15kt, gusts 25kt Light drizzle, mist 4SM
    Clouds: Overcast @ 700ft
    Raw: TAF CYJT 220540Z 2206/2306 06007KT P6SM BKN110 FM220800 12010G20KT P6SM BKN070 FM221200 18012G22KT P6SM -RA OVC030 TEMPO 2212/2215 5SM -RA BR OVC020 FM221500 22015G25KT P6SM BKN015 FM221800 24015G25KT 4SM -DZ BR OVC007 FM222000 27012G22KT P6SM BKN020 FM230000 27015G25KT 4SM -SHSN OVC020 RMK NXT FCST BY 221200Z
  • TAF
    2024-04-22 17:30:00 NDT – 2024-04-22 21:30:00 NDT
    Ceiling Wind Weather Visbility
    2,000ft 270° @ 12kt, gusts 22kt N/A 6SM
    Clouds: Broken @ 2,000ft
    Raw: TAF CYJT 220540Z 2206/2306 06007KT P6SM BKN110 FM220800 12010G20KT P6SM BKN070 FM221200 18012G22KT P6SM -RA OVC030 TEMPO 2212/2215 5SM -RA BR OVC020 FM221500 22015G25KT P6SM BKN015 FM221800 24015G25KT 4SM -DZ BR OVC007 FM222000 27012G22KT P6SM BKN020 FM230000 27015G25KT 4SM -SHSN OVC020 RMK NXT FCST BY 221200Z
  • TAF
    2024-04-22 21:30:00 NDT – 2024-04-23 03:30:00 NDT
    Ceiling Wind Weather Visbility
    2,000ft 270° @ 15kt, gusts 25kt Light snow showers 4SM
    Clouds: Overcast @ 2,000ft
    Raw: TAF CYJT 220540Z 2206/2306 06007KT P6SM BKN110 FM220800 12010G20KT P6SM BKN070 FM221200 18012G22KT P6SM -RA OVC030 TEMPO 2212/2215 5SM -RA BR OVC020 FM221500 22015G25KT P6SM BKN015 FM221800 24015G25KT 4SM -DZ BR OVC007 FM222000 27012G22KT P6SM BKN020 FM230000 27015G25KT 4SM -SHSN OVC020 RMK NXT FCST BY 221200Z
Click/tap to add an annotation marker to the map
Airport Webcams
No webcams added yet.
Direct links to live image URLs will be displayed inline on this page. URLs to separate webpages will be linked to.
URL:
Direct links to live image URLs will be displayed inline on this page. URLs to separate webpages will be linked to.
URL:
Comments
Leave a comment What was your experience like at this airport?